Terminal Aerodrome Forecast
Issued by NWS Lake Charles, LA

Home | Current Version | Previous Version | Text Only | Print | Product List | Glossary On
Versions: 1 2 3 4 5 6 7 8 9 10 11 12 13
000
FTUS44 KLCH 240520
TAFLCH
TAF
KLCH 240520Z 2406/2506 19004KT P6SM SCT150
     FM241500 20005KT P6SM VCSH SCT025
     FM241800 26003KT P6SM VCTS SCT040CB BKN250
      TEMPO 2419/2423 P6SM -TSRA BKN050CB
     FM250000 16003KT P6SM BKN250=

USA.gov is the U.S. government's official web portal to all federal, state and local government web resources and services.